Time;durP1;ratioP1;P1;durP2;ratioP2;P2;SDS_P1;SDS_P2;PMS_P1;PMS_P2;Temp;Humidity;BMP_temperature;BMP_pressure;BME280_temperature;BME280_humidity;BME280_pressure;Samples;Min_cycle;Max_cycle;Signal;HPM_P1;HPM_P2
2021/06/26 00:00:52;;;;;;;13.40;10.07;;;17.70;99.90;;;;;;5055312;28;20295;-79
2021/06/26 00:03:21;;;;;;;15.67;11.30;;;17.70;99.90;;;;;;5055072;28;20200;-81
2021/06/26 00:05:48;;;;;;;19.47;10.60;;;17.80;99.90;;;;;;5055756;28;20228;-81
2021/06/26 00:08:15;;;;;;;15.97;10.80;;;17.80;99.90;;;;;;5055053;28;20234;-83
2021/06/26 00:10:44;;;;;;;15.17;10.70;;;17.80;99.90;;;;;;5055669;28;20298;-81
2021/06/26 00:13:12;;;;;;;14.77;10.70;;;17.80;99.90;;;;;;5054986;28;20601;-81
2021/06/26 00:15:39;;;;;;;14.93;10.30;;;17.70;99.90;;;;;;5055490;28;20287;-81
2021/06/26 00:18:06;;;;;;;13.90;10.93;;;17.70;99.90;;;;;;5055010;28;20262;-81
2021/06/26 00:20:35;;;;;;;13.23;9.67;;;17.60;99.90;;;;;;5055393;28;20291;-81
2021/06/26 00:23:02;;;;;;;13.83;10.13;;;17.60;99.90;;;;;;5054859;28;20228;-81
2021/06/26 00:25:29;;;;;;;14.67;10.37;;;17.60;99.90;;;;;;5055119;28;20296;-80
2021/06/26 00:27:56;;;;;;;16.47;11.47;;;17.60;99.90;;;;;;5054845;28;20270;-81
2021/06/26 00:30:23;;;;;;;17.03;11.40;;;17.70;99.90;;;;;;5054979;28;20283;-83
2021/06/26 00:32:50;;;;;;;16.33;11.93;;;17.70;99.90;;;;;;5054716;28;20265;-81
2021/06/26 00:35:17;;;;;;;20.07;11.93;;;17.70;99.90;;;;;;5054734;28;20228;-81
2021/06/26 00:37:46;;;;;;;16.67;11.10;;;17.80;99.90;;;;;;5054698;28;20254;-80
2021/06/26 00:40:14;;;;;;;15.40;11.30;;;17.80;99.90;;;;;;5054276;28;20782;-81
2021/06/26 00:42:43;;;;;;;20.53;12.63;;;17.70;99.90;;;;;;5055020;28;20294;-81
2021/06/26 00:45:12;;;;;;;17.47;12.43;;;17.80;99.90;;;;;;5053950;28;20239;-80
2021/06/26 00:47:39;;;;;;;23.87;12.50;;;17.90;99.90;;;;;;5053129;28;20344;-82
2021/06/26 00:50:12;;;;;;;19.60;11.67;;;17.70;99.90;;;;;;5054473;28;20754;-81
2021/06/26 00:52:39;;;;;;;20.77;13.50;;;17.60;99.90;;;;;;5054011;28;20207;-81
2021/06/26 00:55:09;;;;;;;19.60;12.83;;;17.70;99.90;;;;;;5054494;28;20300;-82
2021/06/26 00:57:37;;;;;;;19.33;12.20;;;17.70;99.90;;;;;;5053773;28;20215;-80
2021/06/26 01:00:06;;;;;;;20.93;13.27;;;17.60;99.90;;;;;;5054351;28;20287;-81
2021/06/26 01:02:33;;;;;;;23.33;13.87;;;17.70;99.90;;;;;;5053782;28;20250;-80
2021/06/26 01:05:00;;;;;;;25.77;14.60;;;17.60;99.90;;;;;;5045962;28;20206;-81
2021/06/26 01:07:27;;;;;;;29.37;16.63;;;17.70;99.90;;;;;;5053932;28;20252;-81
2021/06/26 01:09:54;;;;;;;23.20;13.60;;;17.70;99.90;;;;;;5053441;28;20231;-80
2021/06/26 01:12:22;;;;;;;28.97;15.07;;;17.60;99.90;;;;;;5053813;28;20662;-82
2021/06/26 01:14:51;;;;;;;24.57;14.30;;;17.60;99.90;;;;;;5053692;28;20232;-82
2021/06/26 01:17:19;;;;;;;23.83;14.13;;;17.60;99.90;;;;;;5053951;28;20307;-82
2021/06/26 01:19:47;;;;;;;24.83;13.30;;;17.50;99.90;;;;;;5053219;28;20202;-79
2021/06/26 01:22:19;;;;;;;21.33;13.33;;;17.30;99.90;;;;;;5053433;28;20709;-80
2021/06/26 01:24:47;;;;;;;16.23;11.70;;;17.30;99.90;;;;;;5053716;28;20240;-79
2021/06/26 01:27:15;;;;;;;17.33;11.70;;;17.30;99.90;;;;;;5053283;28;20797;-79
2021/06/26 01:29:48;;;;;;;16.77;11.73;;;17.40;99.90;;;;;;5053454;28;20200;-80
2021/06/26 01:32:15;;;;;;;16.90;11.77;;;17.50;99.90;;;;;;5053796;28;20322;-80
2021/06/26 01:34:42;;;;;;;16.77;11.27;;;17.60;99.90;;;;;;5052525;28;20283;-80
2021/06/26 01:37:09;;;;;;;16.60;11.00;;;17.60;99.90;;;;;;5052753;28;20228;-81
2021/06/26 01:39:36;;;;;;;17.83;12.10;;;17.70;99.90;;;;;;5052547;28;20255;-79
2021/06/26 01:42:05;;;;;;;20.43;12.30;;;17.70;99.90;;;;;;5052400;28;20615;-83
2021/06/26 01:44:32;;;;;;;18.30;12.77;;;17.70;99.90;;;;;;5052545;28;20287;-83
2021/06/26 01:46:59;;;;;;;20.73;12.23;;;17.70;99.90;;;;;;5052394;28;20223;-82
2021/06/26 01:49:26;;;;;;;18.33;11.27;;;17.70;99.90;;;;;;5052870;28;20279;-82
2021/06/26 01:51:53;;;;;;;18.23;12.37;;;17.80;99.90;;;;;;5052748;28;20196;-82
2021/06/26 01:54:20;;;;;;;18.87;11.80;;;17.70;99.90;;;;;;5050292;28;20200;-80
2021/06/26 01:56:47;;;;;;;18.87;11.17;;;17.70;99.90;;;;;;5052693;28;20283;-83
2021/06/26 01:59:15;;;;;;;16.83;11.33;;;17.90;99.90;;;;;;5052832;28;20273;-80
2021/06/26 02:01:42;;;;;;;17.97;11.63;;;17.90;99.90;;;;;;5034734;28;20204;-83
2021/06/26 02:04:12;;;;;;;17.07;11.00;;;17.80;99.90;;;;;;5052342;28;20206;-80
2021/06/26 02:06:39;;;;;;;16.50;11.30;;;17.60;99.90;;;;;;5052393;28;20291;-80
2021/06/26 02:09:07;;;;;;;18.23;11.67;;;17.70;99.90;;;;;;5052325;28;20709;-79
2021/06/26 02:11:34;;;;;;;15.63;11.23;;;17.70;99.90;;;;;;5053014;28;20204;-83
2021/06/26 02:14:01;;;;;;;18.40;12.03;;;17.70;99.90;;;;;;5052048;28;20586;-81
2021/06/26 02:16:29;;;;;;;19.53;12.23;;;17.80;99.90;;;;;;5052977;28;20203;-82
2021/06/26 02:18:56;;;;;;;19.50;12.03;;;17.80;99.90;;;;;;5052379;28;20247;-82
2021/06/26 02:21:24;;;;;;;15.57;11.77;;;17.80;99.90;;;;;;5052853;28;20200;-84
2021/06/26 02:23:51;;;;;;;18.17;11.43;;;17.80;99.90;;;;;;5052618;28;20246;-80
2021/06/26 02:26:18;;;;;;;16.67;11.80;;;17.80;99.90;;;;;;5051974;28;20641;-80
2021/06/26 02:28:45;;;;;;;16.30;11.67;;;17.70;99.90;;;;;;5052567;28;20220;-79
2021/06/26 02:31:12;;;;;;;16.20;10.97;;;17.50;99.90;;;;;;5052122;28;20207;-84
2021/06/26 02:33:40;;;;;;;20.50;10.83;;;17.50;99.90;;;;;;5052946;28;20253;-82
2021/06/26 02:36:07;;;;;;;15.30;10.77;;;17.50;99.90;;;;;;5052619;28;20236;-81
2021/06/26 02:38:34;;;;;;;17.17;11.97;;;17.50;99.90;;;;;;5052881;28;20286;-80
2021/06/26 02:41:01;;;;;;;15.57;10.73;;;17.60;99.90;;;;;;5052616;28;20207;-84
2021/06/26 02:43:28;;;;;;;18.53;10.87;;;17.60;99.90;;;;;;5052364;28;20212;-79
2021/06/26 02:45:56;;;;;;;19.30;11.47;;;17.50;99.90;;;;;;5052513;28;20210;-80
2021/06/26 02:48:23;;;;;;;15.70;11.67;;;17.60;99.90;;;;;;5052151;28;20813;-80
2021/06/26 02:50:51;;;;;;;13.47;10.43;;;17.60;99.90;;;;;;5052326;28;20289;-80
2021/06/26 02:53:18;;;;;;;14.90;10.83;;;17.50;99.90;;;;;;5052267;28;20291;-80
2021/06/26 02:55:45;;;;;;;16.83;11.70;;;17.10;99.90;;;;;;5052603;28;20231;-80
2021/06/26 02:58:11;;;;;;;13.67;10.07;;;16.90;99.90;;;;;;5052092;28;20572;-81
2021/06/26 03:00:38;;;;;;;14.27;9.93;;;16.70;99.90;;;;;;5052198;28;20292;-79
2021/06/26 03:03:05;;;;;;;14.60;9.63;;;16.80;99.90;;;;;;5052240;28;20283;-80
2021/06/26 03:05:32;;;;;;;12.70;9.70;;;17.00;99.90;;;;;;5052191;28;20722;-80
2021/06/26 03:08:00;;;;;;;14.20;10.17;;;16.90;99.90;;;;;;5052129;28;20228;-80
2021/06/26 03:10:27;;;;;;;14.73;10.10;;;16.90;99.90;;;;;;5051950;28;20624;-80
2021/06/26 03:12:54;;;;;;;14.57;10.03;;;17.00;99.90;;;;;;5055756;28;20200;-82
2021/06/26 03:15:21;;;;;;;15.00;9.90;;;17.10;99.90;;;;;;5055891;28;20208;-81
2021/06/26 03:17:48;;;;;;;15.30;9.73;;;17.10;99.90;;;;;;5055629;28;20283;-82
2021/06/26 03:20:15;;;;;;;11.70;8.57;;;17.10;99.90;;;;;;5056273;28;20223;-79
2021/06/26 03:22:41;;;;;;;16.03;9.10;;;17.00;99.90;;;;;;5055957;28;20204;-81
2021/06/26 03:25:13;;;;;;;13.13;10.00;;;17.10;99.90;;;;;;5055961;28;20196;-80
2021/06/26 03:27:40;;;;;;;16.40;10.00;;;17.10;99.90;;;;;;5055363;28;20248;-79
2021/06/26 03:30:09;;;;;;;12.07;9.50;;;17.00;99.90;;;;;;5056132;28;20290;-83
2021/06/26 03:32:36;;;;;;;17.03;10.90;;;17.00;99.90;;;;;;5055518;28;20262;-79
2021/06/26 03:35:04;;;;;;;18.23;10.97;;;16.90;99.90;;;;;;5042258;28;20294;-81
2021/06/26 03:37:31;;;;;;;17.37;11.03;;;16.60;99.90;;;;;;5055519;28;20200;-79
2021/06/26 03:39:58;;;;;;;16.67;11.87;;;16.30;99.90;;;;;;5055183;28;20290;-79
2021/06/26 03:42:26;;;;;;;16.67;11.67;;;16.40;99.90;;;;;;5055743;28;20283;-80
2021/06/26 03:44:53;;;;;;;15.90;11.83;;;16.60;99.90;;;;;;5055303;28;20291;-82
2021/06/26 03:47:20;;;;;;;18.10;11.90;;;16.70;99.90;;;;;;5055785;28;20618;-83
2021/06/26 03:49:47;;;;;;;16.57;11.27;;;16.70;99.90;;;;;;5055407;28;20637;-84
2021/06/26 03:52:14;;;;;;;18.80;11.57;;;16.60;99.90;;;;;;5055823;28;20200;-80
2021/06/26 03:54:40;;;;;;;17.83;11.53;;;16.70;99.90;;;;;;5055174;28;20215;-81
2021/06/26 03:57:08;;;;;;;16.60;10.50;;;16.80;99.90;;;;;;5055224;28;20576;-79
2021/06/26 03:59:36;;;;;;;13.27;10.07;;;16.90;99.90;;;;;;5055335;28;20262;-80
2021/06/26 04:02:06;;;;;;;17.80;10.97;;;16.90;99.90;;;;;;5055047;28;20196;-79
2021/06/26 04:04:33;;;;;;;15.07;11.20;;;16.80;99.90;;;;;;5055362;28;20218;-80
2021/06/26 04:07:00;;;;;;;14.27;10.90;;;16.70;99.90;;;;;;5055650;28;20283;-81
2021/06/26 04:09:27;;;;;;;17.07;11.37;;;16.30;99.90;;;;;;5055167;28;20236;-82
2021/06/26 04:11:54;;;;;;;22.00;11.63;;;16.20;99.90;;;;;;5055134;28;20206;-80
2021/06/26 04:14:22;;;;;;;17.07;11.50;;;16.30;99.90;;;;;;5054937;28;20275;-79
2021/06/26 04:16:50;;;;;;;21.87;12.63;;;16.30;99.90;;;;;;5055111;28;20235;-79
2021/06/26 04:19:17;;;;;;;15.87;11.20;;;16.10;99.90;;;;;;5054735;28;20299;-81
2021/06/26 04:21:44;;;;;;;16.93;11.27;;;16.20;99.90;;;;;;5054873;28;20303;-79
2021/06/26 04:24:11;;;;;;;13.77;10.70;;;16.30;99.90;;;;;;5053573;28;20208;-82
2021/06/26 04:26:37;;;;;;;16.13;10.23;;;16.40;99.90;;;;;;5054763;28;20231;-81
2021/06/26 04:29:04;;;;;;;14.80;10.30;;;16.30;99.90;;;;;;5054547;28;20310;-79
2021/06/26 04:31:31;;;;;;;13.67;9.73;;;16.30;99.90;;;;;;5054649;28;20658;-81
2021/06/26 04:33:59;;;;;;;12.40;9.60;;;16.40;99.90;;;;;;5054493;28;20681;-78
2021/06/26 04:36:26;;;;;;;14.10;8.83;;;16.50;99.90;;;;;;5054686;28;20200;-79
2021/06/26 04:38:53;;;;;;;15.27;8.07;;;16.60;99.90;;;;;;5054653;28;20197;-80
2021/06/26 04:41:20;;;;;;;10.03;8.20;;;16.50;99.90;;;;;;5054656;28;20287;-84
2021/06/26 04:43:47;;;;;;;11.77;8.93;;;16.60;99.90;;;;;;5054567;28;20250;-78
2021/06/26 04:46:14;;;;;;;12.80;8.57;;;16.90;99.90;;;;;;5053321;28;20287;-80
2021/06/26 04:48:42;;;;;;;13.53;9.03;;;16.90;99.90;;;;;;5054304;28;20259;-79
2021/06/26 04:51:11;;;;;;;11.93;7.93;;;16.90;99.90;;;;;;5054126;28;20567;-80
2021/06/26 04:53:39;;;;;;;12.53;8.17;;;17.10;99.90;;;;;;5054415;28;20197;-82
2021/06/26 04:56:06;;;;;;;10.83;7.23;;;17.20;99.90;;;;;;5053929;28;20204;-79
2021/06/26 04:58:33;;;;;;;7.53;6.00;;;17.40;99.90;;;;;;5053870;28;20562;-80
2021/06/26 05:01:00;;;;;;;7.77;6.00;;;17.50;99.90;;;;;;5053863;28;20614;-80
2021/06/26 05:03:27;;;;;;;8.40;6.07;;;17.50;99.90;;;;;;5053758;28;20228;-79
2021/06/26 05:05:54;;;;;;;8.60;4.90;;;17.50;99.90;;;;;;5054251;28;20493;-79
2021/06/26 05:08:23;;;;;;;6.57;5.40;;;17.40;99.90;;;;;;5053763;28;20259;-82
2021/06/26 05:10:50;;;;;;;6.03;5.17;;;17.50;99.90;;;;;;5054161;28;20224;-79
2021/06/26 05:13:17;;;;;;;7.17;5.43;;;17.70;99.90;;;;;;5054025;28;20204;-79
2021/06/26 05:15:46;;;;;;;5.17;4.63;;;17.80;99.90;;;;;;5053795;28;20212;-79
2021/06/26 05:18:13;;;;;;;6.97;5.20;;;17.80;99.90;;;;;;5053935;28;20246;-80
2021/06/26 05:20:40;;;;;;;6.77;4.60;;;17.80;99.90;;;;;;5053651;28;20295;-79
2021/06/26 05:23:12;;;;;;;6.60;5.00;;;17.70;99.90;;;;;;5044268;28;20295;-80
2021/06/26 05:25:40;;;;;;;5.20;4.70;;;17.60;99.90;;;;;;5047074;28;20228;-79
2021/06/26 05:28:07;;;;;;;7.40;5.00;;;17.60;99.90;;;;;;5053718;28;20259;-79
2021/06/26 05:30:34;;;;;;;5.80;5.13;;;17.70;99.90;;;;;;5053394;28;20204;-79
2021/06/26 05:33:01;;;;;;;7.10;4.97;;;17.60;99.90;;;;;;5052275;28;20614;-79
2021/06/26 05:35:28;;;;;;;6.97;5.30;;;17.70;99.90;;;;;;5049098;28;20291;-78
2021/06/26 05:37:55;;;;;;;6.53;5.57;;;17.70;99.90;;;;;;5049148;28;20279;-83
2021/06/26 05:40:22;;;;;;;7.23;5.40;;;17.80;99.90;;;;;;5044818;28;20201;-79
2021/06/26 05:42:50;;;;;;;6.40;5.80;;;17.90;99.90;;;;;;5049660;28;20212;-79
2021/06/26 05:45:17;;;;;;;8.20;5.67;;;18.00;99.90;;;;;;5052511;28;20247;-80
2021/06/26 05:47:44;;;;;;;6.17;5.57;;;18.00;99.90;;;;;;5052828;28;20235;-84
2021/06/26 05:50:12;;;;;;;7.47;5.50;;;18.00;99.90;;;;;;5053142;28;20635;-79
2021/06/26 05:52:46;;;;;;;5.30;4.80;;;17.90;99.90;;;;;;5052329;28;20550;-80
2021/06/26 05:55:14;;;;;;;6.13;5.37;;;18.00;99.90;;;;;;5053945;28;20361;-80
2021/06/26 05:57:40;;;;;;;5.87;5.27;;;18.10;99.90;;;;;;5050893;28;20200;-82
2021/06/26 06:00:10;;;;;;;10.00;6.20;;;18.20;99.90;;;;;;5049040;28;20202;-80
2021/06/26 06:02:37;;;;;;;6.70;5.50;;;18.40;99.90;;;;;;5050590;28;20239;-79
2021/06/26 06:05:07;;;;;;;6.30;5.70;;;18.50;99.90;;;;;;5052167;28;20825;-79
2021/06/26 06:07:34;;;;;;;6.40;5.60;;;18.50;99.90;;;;;;5052589;28;20250;-80
2021/06/26 06:10:01;;;;;;;6.97;5.73;;;18.50;99.90;;;;;;5052099;28;20267;-83
2021/06/26 06:12:28;;;;;;;7.63;5.67;;;18.60;99.90;;;;;;5051964;28;20734;-78
2021/06/26 06:14:55;;;;;;;6.67;5.20;;;18.70;99.90;;;;;;5049940;28;20493;-80
2021/06/26 06:17:24;;;;;;;6.47;5.00;;;18.60;99.90;;;;;;5051918;28;20200;-80
2021/06/26 06:19:51;;;;;;;7.37;4.50;;;18.60;99.90;;;;;;5052117;28;20216;-79
2021/06/26 06:22:17;;;;;;;5.17;4.67;;;18.70;99.90;;;;;;5052316;28;20705;-79
2021/06/26 06:24:45;;;;;;;6.60;4.70;;;19.00;99.90;;;;;;5052035;28;20197;-79
2021/06/26 06:27:11;;;;;;;6.10;4.70;;;19.00;99.90;;;;;;5051745;28;20627;-78
2021/06/26 06:29:39;;;;;;;5.30;4.37;;;19.20;99.90;;;;;;5052047;28;20305;-79
2021/06/26 06:32:06;;;;;;;6.00;4.73;;;19.30;99.90;;;;;;5052160;28;20199;-79
2021/06/26 06:34:34;;;;;;;10.90;6.63;;;19.40;99.90;;;;;;5052408;28;20247;-83
2021/06/26 06:37:02;;;;;;;9.27;6.97;;;19.50;99.90;;;;;;5052235;28;20624;-78
2021/06/26 06:39:29;;;;;;;12.00;7.57;;;19.60;99.90;;;;;;5052260;28;20291;-80
2021/06/26 06:41:56;;;;;;;10.27;7.80;;;19.70;99.90;;;;;;5052065;28;20236;-79
2021/06/26 06:44:23;;;;;;;12.60;8.13;;;19.90;99.90;;;;;;5050984;28;20199;-78
2021/06/26 06:46:50;;;;;;;11.80;8.17;;;19.90;99.90;;;;;;5053617;28;20250;-78
2021/06/26 06:49:17;;;;;;;16.10;10.50;;;20.30;99.90;;;;;;5055219;28;20624;-81
2021/06/26 06:51:45;;;;;;;17.53;10.40;;;20.60;99.90;;;;;;5055825;28;20231;-79
2021/06/26 06:54:12;;;;;;;18.03;10.53;;;20.50;99.90;;;;;;5055934;28;20288;-79
2021/06/26 06:56:39;;;;;;;19.37;11.50;;;20.60;99.90;;;;;;5056464;28;20238;-79
2021/06/26 06:59:06;;;;;;;14.93;11.10;;;20.70;99.90;;;;;;5055575;28;20196;-79
2021/06/26 07:01:32;;;;;;;18.50;11.97;;;20.70;99.90;;;;;;5055574;28;20288;-79
2021/06/26 07:03:59;;;;;;;19.37;11.40;;;20.00;99.90;;;;;;5054926;28;20212;-80
2021/06/26 07:06:26;;;;;;;18.43;11.80;;;20.10;99.90;;;;;;5055899;28;20200;-78
2021/06/26 07:08:55;;;;;;;19.93;11.53;;;20.30;99.90;;;;;;5055841;28;20557;-78
2021/06/26 07:11:22;;;;;;;17.77;12.37;;;20.50;99.90;;;;;;5056620;28;20220;-78
2021/06/26 07:13:49;;;;;;;15.47;11.77;;;20.60;99.90;;;;;;5056205;28;20203;-78
2021/06/26 07:16:16;;;;;;;16.83;11.63;;;20.60;99.90;;;;;;5056136;28;20228;-78
2021/06/26 07:18:43;;;;;;;15.97;11.47;;;20.50;99.90;;;;;;5055802;28;20232;-79
2021/06/26 07:21:09;;;;;;;20.53;14.33;;;20.80;99.90;;;;;;5055598;28;20222;-78
2021/06/26 07:23:36;;;;;;;21.63;14.97;;;20.80;99.90;;;;;;5055371;28;20718;-78
2021/06/26 07:26:05;;;;;;;17.93;13.33;;;20.30;99.90;;;;;;5055898;28;20201;-78
2021/06/26 07:28:31;;;;;;;23.30;15.27;;;20.80;99.90;;;;;;5055280;28;20714;-79
2021/06/26 07:30:58;;;;;;;26.47;18.77;;;20.50;99.90;;;;;;5055689;28;20307;-78
2021/06/26 07:33:25;;;;;;;22.97;15.33;;;20.50;99.90;;;;;;5055346;28;20270;-79
2021/06/26 07:35:52;;;;;;;24.53;15.83;;;20.70;99.90;;;;;;5055726;28;20279;-82
2021/06/26 07:38:19;;;;;;;26.33;17.47;;;20.30;99.90;;;;;;5054873;28;20674;-78
2021/06/26 07:40:46;;;;;;;24.55;16.95;;;20.50;99.90;;;;;;5052858;28;20603;-81
2021/06/26 07:43:14;;;;;;;20.38;15.15;;;21.30;99.90;;;;;;5055340;28;20658;-79
2021/06/26 07:45:41;;;;;;;26.08;16.83;;;21.60;99.90;;;;;;5055012;28;20235;-78
2021/06/26 07:48:08;;;;;;;22.63;16.52;;;21.90;99.90;;;;;;5055000;28;20663;-81
2021/06/26 07:50:35;;;;;;;26.13;16.83;;;22.10;99.90;;;;;;5054672;28;20248;-79
2021/06/26 07:53:02;;;;;;;28.27;17.25;;;22.20;99.90;;;;;;5055724;28;20249;-79
2021/06/26 07:55:31;;;;;;;20.67;16.05;;;22.10;99.90;;;;;;5056071;28;20201;-78
2021/06/26 07:57:58;;;;;;;26.83;18.98;;;22.50;99.90;;;;;;5055603;28;20200;-78
2021/06/26 08:00:26;;;;;;;27.08;19.17;;;22.20;99.90;;;;;;5055366;28;20738;-79
2021/06/26 08:02:53;;;;;;;25.85;19.25;;;21.80;99.90;;;;;;5054594;28;20201;-80
2021/06/26 08:05:20;;;;;;;26.45;19.05;;;21.70;99.90;;;;;;5056081;28;20211;-78
2021/06/26 08:07:47;;;;;;;25.67;18.90;;;22.00;99.90;;;;;;5055834;28;20228;-79
2021/06/26 08:10:13;;;;;;;30.45;22.40;;;22.40;99.90;;;;;;5056788;28;20226;-78
2021/06/26 08:12:40;;;;;;;31.20;22.80;;;22.80;99.90;;;;;;5056181;28;20209;-78
2021/06/26 08:15:08;;;;;;;28.38;22.80;;;22.80;99.90;;;;;;5055678;28;20219;-79
2021/06/26 08:17:36;;;;;;;26.13;20.20;;;22.90;99.90;;;;;;5054986;28;20291;-81
2021/06/26 08:20:04;;;;;;;38.08;22.95;;;23.70;99.90;;;;;;5053007;28;20282;-79
2021/06/26 08:22:31;;;;;;;29.95;22.65;;;23.00;99.90;;;;;;5053601;28;20239;-79
2021/06/26 08:24:58;;;;;;;31.30;21.73;;;22.90;99.90;;;;;;5054260;28;20294;-83
2021/06/26 08:27:25;;;;;;;31.48;22.73;;;22.90;99.90;;;;;;5053321;28;20200;-79
2021/06/26 08:29:51;;;;;;;27.48;23.70;;;23.40;99.90;;;;;;5054246;28;20216;-81
2021/06/26 08:32:18;;;;;;;33.42;24.33;;;23.50;99.90;;;;;;5054875;28;20291;-79
2021/06/26 08:34:47;;;;;;;32.30;24.83;;;23.40;99.90;;;;;;5053365;28;20377;-78
2021/06/26 08:37:14;;;;;;;30.00;23.52;;;23.30;99.90;;;;;;5055415;28;20618;-82
2021/06/26 08:39:41;;;;;;;32.75;24.73;;;22.50;99.90;;;;;;5052372;28;20228;-80
2021/06/26 08:42:09;;;;;;;29.73;23.17;;;22.10;99.90;;;;;;5049478;28;20643;-78
2021/06/26 08:44:36;;;;;;;31.00;24.73;;;22.60;99.90;;;;;;5046034;28;20203;-80
2021/06/26 08:47:03;;;;;;;27.15;22.58;;;23.40;99.90;;;;;;5056212;28;20215;-80
2021/06/26 08:49:30;;;;;;;29.85;22.80;;;24.10;99.90;;;;;;5051085;28;20311;-79
2021/06/26 08:51:58;;;;;;;28.23;23.35;;;24.50;99.90;;;;;;5053698;28;20268;-83
2021/06/26 08:54:25;;;;;;;28.63;23.00;;;25.20;99.90;;;;;;5053706;28;20224;-80
2021/06/26 08:56:52;;;;;;;30.50;23.92;;;25.00;99.90;;;;;;5053590;28;20300;-79
2021/06/26 08:59:19;;;;;;;29.38;24.25;;;24.20;99.90;;;;;;5052490;28;20212;-80
2021/06/26 09:01:47;;;;;;;28.52;23.40;;;24.20;99.90;;;;;;5044299;28;20197;-80
2021/06/26 09:04:18;;;;;;;32.33;23.83;;;23.90;99.90;;;;;;5042793;28;20654;-81
2021/06/26 09:06:50;;;;;;;27.83;22.77;;;23.60;99.90;;;;;;5051781;28;20211;-79
2021/06/26 09:09:29;;;;;;;27.55;22.98;;;23.20;99.90;;;;;;5053755;28;20216;-78
2021/06/26 09:12:00;;;;;;;29.08;25.00;;;23.80;99.90;;;;;;5053941;28;20282;-79
2021/06/26 09:14:28;;;;;;;31.33;23.83;;;23.90;99.90;;;;;;5055116;28;21106;-79
2021/06/26 09:16:56;;;;;;;26.52;21.83;;;24.20;99.90;;;;;;5043025;28;20197;-79
2021/06/26 09:19:23;;;;;;;27.60;23.38;;;24.30;99.90;;;;;;5048976;28;20279;-79
2021/06/26 09:21:58;;;;;;;28.92;24.10;;;24.50;99.90;;;;;;5048284;28;20206;-79
2021/06/26 09:24:36;;;;;;;34.05;24.50;;;24.50;99.90;;;;;;5053017;28;20199;-79
2021/06/26 09:27:03;;;;;;;27.83;24.08;;;24.70;99.90;;;;;;5053061;28;20572;-81
2021/06/26 09:29:30;;;;;;;26.85;22.98;;;24.70;99.90;;;;;;5053410;28;20318;-79
2021/06/26 09:31:58;;;;;;;29.30;25.38;;;25.00;99.90;;;;;;5055888;28;20662;-82
2021/06/26 09:34:37;;;;;;;29.70;24.15;;;24.70;99.90;;;;;;5060589;28;20204;-81
2021/06/26 09:37:06;;;;;;;28.98;24.02;;;24.70;99.90;;;;;;5054071;28;20290;-79
2021/06/26 09:39:39;;;;;;;31.20;24.33;;;24.70;99.90;;;;;;5043875;28;20226;-79
2021/06/26 09:42:17;;;;;;;32.03;25.17;;;24.10;99.90;;;;;;5046383;28;20196;-79
2021/06/26 09:44:49;;;;;;;31.15;24.75;;;23.80;99.90;;;;;;5052958;28;20200;-78
2021/06/26 09:47:26;;;;;;;26.75;22.85;;;24.30;99.90;;;;;;5050380;28;20561;-81
2021/06/26 09:49:53;;;;;;;27.80;23.52;;;24.30;99.90;;;;;;5055652;28;20219;-77
2021/06/26 09:52:20;;;;;;;31.83;23.42;;;24.60;99.90;;;;;;5049117;28;20204;-81
2021/06/26 09:54:48;;;;;;;30.58;24.27;;;24.60;99.90;;;;;;5051777;28;20215;-80
2021/06/26 09:57:15;;;;;;;30.35;25.20;;;24.90;99.90;;;;;;5047574;28;20557;-78
2021/06/26 09:59:44;;;;;;;33.17;24.75;;;25.20;99.90;;;;;;5051125;28;20277;-80
2021/06/26 10:02:22;;;;;;;26.90;23.00;;;25.70;99.90;;;;;;5051254;28;20644;-78
2021/06/26 10:04:49;;;;;;;30.13;24.35;;;26.60;99.90;;;;;;5048956;28;20757;-78
2021/06/26 10:07:19;;;;;;;28.40;22.73;;;27.90;99.90;;;;;;5048858;28;20227;-78
2021/06/26 10:09:46;;;;;;;25.10;22.40;;;29.00;99.90;;;;;;5052513;28;20235;-80
2021/06/26 10:12:14;;;;;;;26.00;22.65;;;29.20;99.90;;;;;;5049587;28;20223;-78
2021/06/26 10:14:42;;;;;;;24.67;21.92;;;28.80;99.90;;;;;;5050158;28;20200;-78
2021/06/26 10:17:10;;;;;;;25.88;21.98;;;28.30;99.90;;;;;;5051060;28;20219;-78
2021/06/26 10:19:37;;;;;;;26.15;23.20;;;28.40;99.90;;;;;;5050595;28;20291;-78
2021/06/26 10:22:05;;;;;;;26.83;23.45;;;28.90;99.90;;;;;;5051774;28;20724;-79
2021/06/26 10:24:32;;;;;;;27.77;23.92;;;28.10;99.90;;;;;;5051595;28;20188;-79
2021/06/26 10:26:59;;;;;;;27.17;24.25;;;28.00;99.90;;;;;;5049985;28;20291;-78
2021/06/26 10:29:33;;;;;;;29.80;24.17;;;28.30;99.90;;;;;;5050014;28;20193;-77
2021/06/26 10:32:09;;;;;;;29.83;24.95;;;27.60;99.90;;;;;;5050982;28;20196;-80
2021/06/26 10:34:43;;;;;;;29.63;23.15;;;28.20;99.90;;;;;;5051897;28;20554;-78
2021/06/26 10:37:15;;;;;;;27.98;24.33;;;29.00;99.90;;;;;;5049853;28;20199;-80
2021/06/26 10:39:42;;;;;;;27.52;23.00;;;29.50;99.90;;;;;;5050916;28;20709;-79
2021/06/26 10:42:11;;;;;;;29.40;23.83;;;29.90;99.90;;;;;;5046218;28;20718;-82
2021/06/26 10:44:45;;;;;;;28.13;23.95;;;29.80;99.90;;;;;;5040355;28;20196;-78
2021/06/26 10:47:13;;;;;;;29.73;24.60;;;29.40;99.90;;;;;;5049339;28;20189;-78
2021/06/26 10:49:40;;;;;;;27.05;24.20;;;29.10;99.90;;;;;;5048435;28;20233;-83
2021/06/26 10:52:13;;;;;;;27.85;24.00;;;29.30;99.90;;;;;;5051408;28;20200;-83
2021/06/26 10:54:54;;;;;;;26.17;23.35;;;29.80;99.90;;;;;;5051197;28;20227;-81
2021/06/26 10:57:21;;;;;;;27.75;22.92;;;29.80;99.90;;;;;;5049952;28;20220;-82
2021/06/26 10:59:58;;;;;;;28.77;23.77;;;29.70;99.90;;;;;;5050173;28;20293;-81
2021/06/26 11:02:25;;;;;;;29.67;23.73;;;30.00;99.90;;;;;;5050245;28;20203;-81
2021/06/26 11:04:52;;;;;;;27.25;23.58;;;30.50;99.90;;;;;;5048085;28;20231;-79
2021/06/26 11:07:19;;;;;;;25.25;22.27;;;30.80;99.90;;;;;;5046361;28;20228;-79
2021/06/26 11:09:48;;;;;;;26.90;24.05;;;30.70;99.90;;;;;;5051883;28;20712;-81
2021/06/26 11:12:18;;;;;;;26.63;23.80;;;29.50;99.90;;;;;;5051770;28;20292;-79
2021/06/26 11:14:50;;;;;;;27.85;24.58;;;27.80;99.90;;;;;;5051936;28;20205;-82
2021/06/26 11:17:21;;;;;;;26.73;23.73;;;27.90;99.90;;;;;;5052242;28;20559;-80
2021/06/26 11:19:48;;;;;;;28.85;22.95;;;28.30;99.90;;;;;;5052268;28;20208;-83
2021/06/26 11:22:15;;;;;;;28.38;25.10;;;28.80;99.90;;;;;;5052554;28;20654;-79
2021/06/26 11:24:44;;;;;;;27.92;24.10;;;28.60;99.90;;;;;;5052338;28;20666;-80
2021/06/26 11:27:14;;;;;;;28.10;24.38;;;28.90;99.90;;;;;;5052100;28;20236;-80
2021/06/26 11:29:43;;;;;;;28.98;25.05;;;29.20;99.90;;;;;;5052114;28;20204;-79
2021/06/26 11:32:22;;;;;;;31.27;24.17;;;29.70;99.90;;;;;;5053100;28;20283;-79
2021/06/26 11:34:57;;;;;;;27.60;24.63;;;29.50;99.90;;;;;;5045927;28;20703;-79
2021/06/26 11:37:24;;;;;;;29.77;26.33;;;30.20;99.90;;;;;;5055391;28;20666;-81
2021/06/26 11:39:51;;;;;;;29.55;26.40;;;29.60;99.90;;;;;;5055294;28;20223;-79
2021/06/26 11:42:20;;;;;;;29.90;26.80;;;29.30;99.90;;;;;;5055797;28;20285;-83
2021/06/26 11:44:48;;;;;;;29.35;25.38;;;28.80;99.90;;;;;;5054698;28;20231;-79
2021/06/26 11:47:16;;;;;;;28.95;25.63;;;29.10;99.90;;;;;;5055302;28;20206;-82
2021/06/26 11:49:46;;;;;;;29.42;26.08;;;28.60;99.90;;;;;;5053054;28;20271;-79
2021/06/26 11:52:14;;;;;;;27.80;24.75;;;28.70;99.90;;;;;;5054551;28;20200;-80
2021/06/26 11:54:42;;;;;;;28.92;25.25;;;29.00;99.90;;;;;;5054352;28;20231;-78
2021/06/26 11:57:13;;;;;;;28.42;25.15;;;29.00;99.90;;;;;;5053293;28;20196;-78
2021/06/26 11:59:41;;;;;;;28.73;25.35;;;28.70;99.90;;;;;;5053458;28;20188;-80
2021/06/26 12:02:08;;;;;;;27.45;23.98;;;28.60;99.90;;;;;;5053033;28;20231;-78
2021/06/26 12:04:37;;;;;;;26.60;23.48;;;29.00;99.90;;;;;;5034537;28;20237;-78
2021/06/26 12:07:07;;;;;;;24.67;22.08;;;28.90;99.90;;;;;;5042062;28;20236;-77
2021/06/26 12:09:35;;;;;;;30.75;25.13;;;29.40;99.90;;;;;;5055025;28;20226;-77
2021/06/26 12:12:03;;;;;;;28.50;24.15;;;29.50;99.90;;;;;;5055460;28;20635;-78
2021/06/26 12:14:32;;;;;;;30.60;24.48;;;29.90;99.90;;;;;;5055403;28;20628;-78
2021/06/26 12:17:08;;;;;;;25.75;22.85;;;30.40;99.90;;;;;;5055105;28;20287;-80
2021/06/26 12:19:36;;;;;;;26.08;23.05;;;30.50;99.90;;;;;;5055685;28;20298;-79
2021/06/26 12:22:06;;;;;;;25.85;21.95;;;30.70;99.90;;;;;;5054215;28;20239;-79
2021/06/26 12:24:36;;;;;;;24.85;22.25;;;30.40;99.90;;;;;;5054505;28;20570;-80
2021/06/26 12:27:09;;;;;;;28.27;23.00;;;30.20;99.90;;;;;;5055068;28;20278;-78
2021/06/26 12:29:37;;;;;;;27.42;22.65;;;29.10;99.90;;;;;;5053258;28;20200;-79
2021/06/26 12:32:08;;;;;;;26.15;22.75;;;28.90;99.90;;;;;;5054522;28;20728;-79
2021/06/26 12:34:46;;;;;;;27.27;23.55;;;28.50;99.90;;;;;;5049875;28;20230;-79